WetterOnline ( https://www.wetteronline.de )

Wetter aktuell Helgoland

Aktuelles Wetter: Helgoland/Düne (8m)

6-stündlich | Neueste Meldungen
Ortszeit Temperatur Wetter
Fr, 02.12. 7:00 4.8° C bedeckt
Fr, 02.12. 1:00 5.3° C Sprühregen
Do, 01.12. 19:00 6.1° C bedeckt
Do, 01.12. 13:00 5.9° C bedeckt
Do, 01.12. 7:00 6.0° C Sprühregen
Do, 01.12. 1:00 6.1° C bewölkt
Mi, 30.11. 19:00 6.4° C bedeckt
Mi, 30.11. 13:00 6.1° C Sprühregen
Ortszeit Temperatur Wetter
Fr, 02.12. 11:30 3.8° C bedeckt
Fr, 02.12. 11:20 3.8° C bedeckt
Fr, 02.12. 11:10 3.7° C bedeckt
Fr, 02.12. 11:00 3.1° C leichter Regen
Fr, 02.12. 10:50 3.1° C leichter Regen
Fr, 02.12. 10:40 3.4° C Sprühregen
Fr, 02.12. 10:30 3.6° C leichter Regen
Fr, 02.12. 10:00 3.8° C leichter Regen
Fr, 02.12. 9:30 3.5° C leichter Regen
Fr, 02.12. 9:00 3.5° C leichter Regen
Fr, 02.12. 8:30 3.8° C leichter Regen
Ortszeit Relative Feuchte Sichtweite
Fr, 02.12. 7:00 82% 18 km
Fr, 02.12. 1:00 86% 7 km
Do, 01.12. 19:00 80% 10 km
Do, 01.12. 13:00 75% 15 km
Do, 01.12. 7:00 86% 12 km
Do, 01.12. 1:00 86% 13 km
Mi, 30.11. 19:00 85% 9 km
Mi, 30.11. 13:00 88% 6 km
Ortszeit Relative Feuchte Sichtweite
Fr, 02.12. 11:30 84% 21 km
Fr, 02.12. 11:20 84% -
Fr, 02.12. 11:10 87% -
Fr, 02.12. 11:00 88% 9 km
Fr, 02.12. 10:50 88% -
Fr, 02.12. 10:40 88% -
Fr, 02.12. 10:30 89% 8 km
Fr, 02.12. 10:00 86% 15 km
Fr, 02.12. 9:30 87% 17 km
Fr, 02.12. 9:00 87% 8 km
Fr, 02.12. 8:30 88% 9 km
Ortszeit Niederschlagsmenge Niederschlagsart
Fr, 02.12. 7:00 0.1 l/m2 in 12 Std. Regen
Fr, 02.12. 1:00 0.1 l/m2 in 6 Std. Sprühregen
Do, 01.12. 19:00 0.1 l/m2 in 12 Std. Sprühregen
Do, 01.12. 13:00 0.1 l/m2 in 6 Std. Regen
Do, 01.12. 7:00 0.1 l/m2 in 12 Std. Regen
Do, 01.12. 1:00 0.0 l/m2 in 6 Std. -
Mi, 30.11. 19:00 0.4 l/m2 in 12 Std. Sprühregen
Mi, 30.11. 13:00 0.4 l/m2 in 6 Std. Regen
Ortszeit Niederschlagsmenge Niederschlagsart
Fr, 02.12. 11:30 <0.05 l/m2 in 30 Min Schneeregen
Fr, 02.12. 11:20 keine Meldung -
Fr, 02.12. 11:10 keine Meldung -
Fr, 02.12. 11:00 0.2 l/m2 in 1 Std. Regen
Fr, 02.12. 10:50 keine Meldung -
Fr, 02.12. 10:40 keine Meldung -
Fr, 02.12. 10:30 0.1 l/m2 in 30 Min -
Fr, 02.12. 10:00 <0.05 l/m2 in 1 Std. Regen
Fr, 02.12. 9:30 <0.05 l/m2 in 30 Min -
Fr, 02.12. 9:00 0.1 l/m2 in 1 Std. Regen
Fr, 02.12. 8:30 0.1 l/m2 in 30 Min -
Ortszeit Stärke Spitze Richtung
km/h Bft. km/h Grad Sektor
Fr, 02.12. 7:00 29 5 36 80° O
Fr, 02.12. 1:00 22 4 33 90° O
Do, 01.12. 19:00 25 4 32 90° O
Do, 01.12. 13:00 22 4 36 90° O
Do, 01.12. 7:00 18 3 32 80° O
Do, 01.12. 1:00 20 4 33 50° NO
Mi, 30.11. 19:00 28 4 37 60° NO
Mi, 30.11. 13:00 20 4 37 70° O
Ortszeit Stärke Spitze Richtung
km/h Bft. km/h Grad Sektor
Fr, 02.12. 11:30 28 4 37 90° O
Fr, 02.12. 11:20 28 4 - 90° O
Fr, 02.12. 11:10 25 4 - 80° O
Fr, 02.12. 11:00 26 4 35 90° O
Fr, 02.12. 10:50 26 4 - 90° O
Fr, 02.12. 10:40 28 4 - 100° O
Fr, 02.12. 10:30 25 4 36 100° O
Fr, 02.12. 10:00 24 4 31 100° O
Fr, 02.12. 9:30 24 4 31 90° O
Fr, 02.12. 9:00 28 4 37 100° O
Fr, 02.12. 8:30 24 4 31 90° O
Ortszeit Untergrenze Bedeckung Gattung
total tief tief mittel hoch
Fr, 02.12. 7:00 450 m 8/8 8/8 - - -
Fr, 02.12. 1:00 330 m 8/8 8/8 - - -
Do, 01.12. 19:00 450 m 8/8 8/8 - - -
Do, 01.12. 13:00 570 m 8/8 8/8 - - -
Do, 01.12. 7:00 360 m 8/8 8/8 - - -
Do, 01.12. 1:00 330 m 7/8 7/8 - - -
Mi, 30.11. 19:00 390 m 8/8 8/8 - - -
Mi, 30.11. 13:00 330 m 8/8 8/8 - - -
Ortszeit Bedeckungsgrad in Achtel und Wolkenuntergrenze
Fr, 02.12. 11:30 2(300m) 7(810m) 8(2400m)
Fr, 02.12. 11:20 2(300m) 7(810m) 8(2400m)
Fr, 02.12. 11:10 8
Fr, 02.12. 11:00 3(300m) 5(390m) 8(570m)
Fr, 02.12. 10:50 3(300m) 5(390m) 8(570m)
Fr, 02.12. 10:40 8
Fr, 02.12. 10:30 8(330m)
Fr, 02.12. 10:00 8(330m)
Fr, 02.12. 9:30 8(330m)
Fr, 02.12. 9:00 8(300m)
Fr, 02.12. 8:30 7(330m)
Ortszeit Luftdruck NN (hPa) Tendenz (hPa in 3 Std.)
Fr, 02.12. 7:00 1028 - 0,2
Fr, 02.12. 1:00 1029 - 0,5
Do, 01.12. 19:00 1029 + 0,4
Do, 01.12. 13:00 1030 - 0,2
Do, 01.12. 7:00 1029 0,0
Do, 01.12. 1:00 1029 + 0,2
Mi, 30.11. 19:00 1027 + 1,0
Mi, 30.11. 13:00 1026 + 0,4
Ortszeit Luftdruck NN (hPa) Tendenz (hPa in 3 Std.)
Fr, 02.12. 11:30 1029 + 0,4
Fr, 02.12. 11:20 1029 keine Meldung
Fr, 02.12. 11:10 1029 keine Meldung
Fr, 02.12. 11:00 1029 + 0,6
Fr, 02.12. 10:50 1029 keine Meldung
Fr, 02.12. 10:40 1029 keine Meldung
Fr, 02.12. 10:30 1029 + 0,7
Fr, 02.12. 10:00 1029 + 0,7
Fr, 02.12. 9:30 1029 + 0,8
Fr, 02.12. 9:00 1029 + 0,8
Fr, 02.12. 8:30 1029 + 0,6
Ortszeit Schneehöhe (cm)
Fr, 02.12. 7:00 0
Fr, 02.12. 1:00 0
Do, 01.12. 19:00 0
Do, 01.12. 13:00 0
Do, 01.12. 7:00 0
Do, 01.12. 1:00 0
Mi, 30.11. 19:00 0
Mi, 30.11. 13:00 0
Ortszeit Schneehöhe (cm)
Fr, 02.12. 11:30 0
Fr, 02.12. 11:20 0
Fr, 02.12. 11:10 0
Fr, 02.12. 11:00 0
Fr, 02.12. 10:50 0
Fr, 02.12. 10:40 0
Fr, 02.12. 10:30 0
Fr, 02.12. 10:00 0
Fr, 02.12. 9:30 0
Fr, 02.12. 9:00 0
Fr, 02.12. 8:30 0
Link zu dieser Seite / Seite empfehlen

Das Wetter in ...